Time;durP1;ratioP1;P1;durP2;ratioP2;P2;SDS_P1;SDS_P2;PMS_P1;PMS_P2;Temp;Humidity;BMP_temperature;BMP_pressure;BME280_temperature;BME280_humidity;BME280_pressure;Samples;Min_cycle;Max_cycle;Signal;HPM_P1;HPM_P2
2024/05/02 00:00:59;;;;;;;;;;;13.50;99.90;;;;;;5004632;28;19921;-74
2024/05/02 00:03:24;;;;;;;;;;;13.50;99.90;;;;;;5016783;28;19927;-73
2024/05/02 00:05:50;;;;;;;;;;;13.50;99.90;;;;;;5017147;28;20006;-74
2024/05/02 00:08:15;;;;;;;;;;;13.60;99.90;;;;;;5012010;28;19928;-74
2024/05/02 00:10:41;;;;;;;;;;;13.60;99.90;;;;;;5017395;28;20142;-74
2024/05/02 00:13:06;;;;;;;;;;;13.70;99.90;;;;;;5009245;28;20474;-73
2024/05/02 00:15:32;;;;;;;;;;;13.70;99.90;;;;;;5014013;28;20478;-74
2024/05/02 00:17:57;;;;;;;;;;;13.70;99.90;;;;;;5005973;28;19925;-74
2024/05/02 00:20:23;;;;;;;;;;;13.70;99.90;;;;;;5018256;28;19913;-73
2024/05/02 00:22:49;;;;;;;;;;;13.80;99.90;;;;;;5001794;28;19921;-73
2024/05/02 00:25:14;;;;;;;;;;;13.60;99.90;;;;;;5019831;28;20444;-73
2024/05/02 00:27:40;;;;;;;;;;;13.40;99.90;;;;;;5006686;28;20329;-74
2024/05/02 00:30:06;;;;;;;;;;;13.40;99.90;;;;;;5015083;28;19920;-73
2024/05/02 00:32:31;;;;;;;;;;;13.60;99.90;;;;;;5009627;28;20014;-73
2024/05/02 00:34:57;;;;;;;;;;;13.70;99.90;;;;;;5017619;28;19925;-74
2024/05/02 00:37:22;;;;;;;;;;;13.90;99.90;;;;;;5001135;28;19933;-73
2024/05/02 00:39:48;;;;;;;;;;;13.90;99.90;;;;;;5017726;28;19921;-73
2024/05/02 00:42:13;;;;;;;;;;;14.00;99.90;;;;;;4999934;28;19925;-73
2024/05/02 00:44:39;;;;;;;;;;;14.10;99.90;;;;;;5017776;28;19940;-73
2024/05/02 00:47:04;;;;;;;;;;;14.00;99.90;;;;;;5020409;28;19921;-73
2024/05/02 00:49:31;;;;;;;;;;;14.00;99.90;;;;;;5003972;28;19921;-74
2024/05/02 00:51:58;;;;;;;;;;;14.00;99.90;;;;;;5017980;28;19925;-74
2024/05/02 00:54:24;;;;;;;;;;;14.10;99.90;;;;;;5006103;28;21919;-75
2024/05/02 00:56:50;;;;;;;;;;;14.00;99.90;;;;;;5013557;28;19928;-74
2024/05/02 00:59:15;;;;;;;;;;;14.00;99.90;;;;;;5007020;28;19921;-74
2024/05/02 01:01:41;;;;;;;;;;;14.00;99.90;;;;;;5018462;28;20348;-74
2024/05/02 01:04:06;;;;;;;;;;;13.90;99.90;;;;;;5006652;28;19928;-74
2024/05/02 01:06:32;;;;;;;;;;;13.90;99.90;;;;;;5018854;28;20360;-73
2024/05/02 01:08:57;;;;;;;;;;;13.90;99.90;;;;;;5003530;28;19943;-72
2024/05/02 01:11:23;;;;;;;;;;;13.90;99.90;;;;;;5015985;28;22249;-73
2024/05/02 01:13:49;;;;;;;;;;;13.80;99.90;;;;;;5008338;28;19921;-73
2024/05/02 01:16:14;;;;;;;;;;;13.80;99.90;;;;;;5010123;28;20535;-73
2024/05/02 01:18:40;;;;;;;;;;;13.80;99.90;;;;;;5006136;28;20451;-73
2024/05/02 01:21:05;;;;;;;;;;;13.70;99.90;;;;;;5019663;28;21049;-74
2024/05/02 01:23:31;;;;;;;;;;;13.70;99.90;;;;;;5004311;28;19921;-74
2024/05/02 01:25:56;;;;;;;;;;;13.80;99.90;;;;;;5015789;28;20042;-74
2024/05/02 01:28:22;;;;;;;;;;;13.70;99.90;;;;;;5014046;28;19951;-74
2024/05/02 01:30:48;;;;;;;;;;;13.70;99.90;;;;;;5001115;28;19921;-74
2024/05/02 01:33:13;;;;;;;;;;;13.70;99.90;;;;;;5020967;28;19967;-74
2024/05/02 01:35:39;;;;;;;;;;;13.70;99.90;;;;;;5001591;28;20407;-74
2024/05/02 01:38:04;;;;;;;;;;;13.70;99.90;;;;;;5017287;28;19975;-74
2024/05/02 01:40:30;;;;;;;;;;;13.70;99.90;;;;;;5003976;28;19921;-74
2024/05/02 01:42:55;;;;;;;;;;;13.80;99.90;;;;;;5012877;28;19921;-74
2024/05/02 01:45:21;;;;;;;;;;;13.80;99.90;;;;;;5004593;28;20480;-71
2024/05/02 01:47:46;;;;;;;;;;;13.70;99.90;;;;;;5018379;28;21018;-72
2024/05/02 01:50:12;;;;;;;;;;;13.70;99.90;;;;;;5000437;28;20254;-71
2024/05/02 01:52:37;;;;;;;;;;;13.70;99.90;;;;;;5016901;28;19932;-71
2024/05/02 01:55:03;;;;;;;;;;;13.60;99.90;;;;;;5004271;28;19913;-72
2024/05/02 01:57:29;;;;;;;;;;;13.60;99.90;;;;;;5010555;28;20278;-72
2024/05/02 01:59:55;;;;;;;;;;;13.60;99.90;;;;;;5004264;28;21182;-72
2024/05/02 02:02:20;;;;;;;;;;;13.60;99.90;;;;;;5016682;28;20589;-72
2024/05/02 02:04:46;;;;;;;;;;;13.50;99.90;;;;;;5012585;28;21078;-74
2024/05/02 02:07:11;;;;;;;;;;;13.50;99.90;;;;;;5017336;28;19921;-74
2024/05/02 02:09:37;;;;;;;;;;;13.40;99.90;;;;;;5016898;28;19913;-74
2024/05/02 02:12:02;;;;;;;;;;;13.50;99.90;;;;;;5005043;28;19929;-74
2024/05/02 02:14:28;;;;;;;;;;;13.40;99.90;;;;;;5018867;28;19966;-75
2024/05/02 02:16:54;;;;;;;;;;;13.40;99.90;;;;;;5001531;28;19928;-74
2024/05/02 02:19:19;;;;;;;;;;;13.40;99.90;;;;;;5022330;28;20000;-74
2024/05/02 02:21:45;;;;;;;;;;;13.30;99.90;;;;;;5005216;28;19921;-75
2024/05/02 02:24:10;;;;;;;;;;;13.30;99.90;;;;;;5018178;28;19913;-75
2024/05/02 02:26:36;;;;;;;;;;;13.30;99.90;;;;;;5008516;28;19964;-75
2024/05/02 02:29:02;;;;;;;;;;;13.30;99.90;;;;;;5016327;28;19920;-75
2024/05/02 02:31:27;;;;;;;;;;;13.30;99.90;;;;;;5003976;28;19924;-75
2024/05/02 02:33:53;;;;;;;;;;;13.30;99.90;;;;;;5022317;28;19921;-75
2024/05/02 02:36:18;;;;;;;;;;;13.30;99.90;;;;;;5003744;28;19954;-75
2024/05/02 02:38:44;;;;;;;;;;;13.30;99.90;;;;;;5024404;28;19952;-75
2024/05/02 02:41:09;;;;;;;;;;;13.30;99.90;;;;;;5009440;28;19925;-75
2024/05/02 02:43:39;;;;;;;;;;;13.30;99.90;;;;;;5017371;28;19921;-75
2024/05/02 02:46:06;;;;;;;;;;;13.30;99.90;;;;;;5017935;28;19947;-74
2024/05/02 02:48:31;;;;;;;;;;;13.20;99.90;;;;;;5008343;28;19917;-75
2024/05/02 02:50:57;;;;;;;;;;;13.20;99.90;;;;;;5018670;28;19936;-75
2024/05/02 02:53:22;;;;;;;;;;;13.20;99.90;;;;;;5007917;28;19964;-75
2024/05/02 02:55:48;;;;;;;;;;;13.20;99.90;;;;;;5014749;28;19932;-74
2024/05/02 02:58:13;;;;;;;;;;;13.10;99.90;;;;;;5006836;28;19943;-74
2024/05/02 03:00:39;;;;;;;;;;;13.10;99.90;;;;;;5019469;28;19921;-75
2024/05/02 03:03:04;;;;;;;;;;;13.10;99.90;;;;;;5005261;28;20377;-75
2024/05/02 03:05:30;;;;;;;;;;;13.00;99.90;;;;;;5021756;28;20373;-72
2024/05/02 03:07:55;;;;;;;;;;;13.00;99.90;;;;;;5007266;28;19921;-75
2024/05/02 03:10:21;;;;;;;;;;;13.00;99.90;;;;;;5015942;28;19929;-74
2024/05/02 03:12:48;;;;;;;;;;;13.00;99.90;;;;;;5005946;28;20023;-73
2024/05/02 03:15:13;;;;;;;;;;;12.90;99.90;;;;;;5017539;28;19921;-73
2024/05/02 03:17:39;;;;;;;;;;;12.90;99.90;;;;;;5003489;28;19970;-74
2024/05/02 03:20:04;;;;;;;;;;;12.80;99.90;;;;;;5017599;28;19921;-74
2024/05/02 03:22:30;;;;;;;;;;;12.80;99.90;;;;;;5005888;28;19995;-73
2024/05/02 03:24:55;;;;;;;;;;;12.80;99.90;;;;;;5018652;28;19921;-74
2024/05/02 03:27:21;;;;;;;;;;;12.80;99.90;;;;;;5019629;28;19925;-73
2024/05/02 03:29:47;;;;;;;;;;;12.70;99.90;;;;;;4998372;28;20383;-74
2024/05/02 03:32:12;;;;;;;;;;;12.70;99.90;;;;;;5018605;28;19925;-74
2024/05/02 03:34:38;;;;;;;;;;;12.70;99.90;;;;;;5011069;28;19921;-73
2024/05/02 03:37:03;;;;;;;;;;;12.60;99.90;;;;;;5018283;28;20573;-74
2024/05/02 03:39:29;;;;;;;;;;;12.60;99.90;;;;;;5009080;28;21628;-73
2024/05/02 03:41:54;;;;;;;;;;;12.60;99.90;;;;;;5014972;28;19991;-73
2024/05/02 03:44:21;;;;;;;;;;;12.60;99.90;;;;;;5004264;28;19917;-74
2024/05/02 03:46:46;;;;;;;;;;;12.50;99.90;;;;;;5022741;28;19928;-74
2024/05/02 03:49:12;;;;;;;;;;;12.50;99.90;;;;;;5005870;28;20401;-74
2024/05/02 03:51:37;;;;;;;;;;;12.50;99.90;;;;;;5021214;28;20427;-74
2024/05/02 03:54:03;;;;;;;;;;;12.50;99.90;;;;;;5009557;28;20415;-74
2024/05/02 03:56:28;;;;;;;;;;;12.50;99.90;;;;;;5015008;28;20447;-75
2024/05/02 03:58:54;;;;;;;;;;;12.60;99.90;;;;;;5002789;28;20423;-74
2024/05/02 04:01:19;;;;;;;;;;;12.60;99.90;;;;;;5017856;28;19944;-73
2024/05/02 04:03:45;;;;;;;;;;;12.60;99.90;;;;;;4988529;28;19925;-73
2024/05/02 04:06:10;;;;;;;;;;;12.50;99.90;;;;;;5018516;28;19921;-74
2024/05/02 04:08:36;;;;;;;;;;;12.50;99.90;;;;;;5020107;28;20344;-74
2024/05/02 04:11:04;;;;;;;;;;;12.50;99.90;;;;;;5003409;28;20386;-74
2024/05/02 04:13:29;;;;;;;;;;;12.50;99.90;;;;;;5011718;28;19982;-74
2024/05/02 04:15:55;;;;;;;;;;;12.40;99.90;;;;;;5001205;28;20417;-74
2024/05/02 04:18:20;;;;;;;;;;;12.40;99.90;;;;;;5021300;28;20239;-74
2024/05/02 04:20:49;;;;;;;;;;;12.40;99.90;;;;;;5006425;28;19917;-74
2024/05/02 04:23:15;;;;;;;;;;;12.40;99.90;;;;;;5016294;28;20004;-74
2024/05/02 04:25:40;;;;;;;;;;;12.50;99.90;;;;;;5008403;28;19921;-74
2024/05/02 04:28:06;;;;;;;;;;;12.50;99.90;;;;;;5017845;28;19956;-74
2024/05/02 04:30:32;;;;;;;;;;;12.50;99.90;;;;;;5002196;28;19970;-75
2024/05/02 04:32:57;;;;;;;;;;;12.50;99.90;;;;;;5022291;28;20305;-74
2024/05/02 04:35:22;;;;;;;;;;;12.60;99.90;;;;;;5004831;28;19951;-75
2024/05/02 04:37:48;;;;;;;;;;;12.70;99.90;;;;;;5016705;28;19948;-75
2024/05/02 04:40:13;;;;;;;;;;;12.70;99.90;;;;;;5009565;28;20240;-73
2024/05/02 04:42:39;;;;;;;;;;;12.80;99.90;;;;;;5014480;28;20301;-74
2024/05/02 04:45:05;;;;;;;;;;;12.80;99.90;;;;;;5011135;28;19917;-74
2024/05/02 04:47:30;;;;;;;;;;;12.80;99.90;;;;;;5019385;28;19928;-74
2024/05/02 04:49:56;;;;;;;;;;;12.80;99.90;;;;;;5015331;28;19959;-74
2024/05/02 04:52:21;;;;;;;;;;;12.80;99.90;;;;;;5005963;28;19959;-74
2024/05/02 04:54:47;;;;;;;;;;;12.80;99.90;;;;;;5015609;28;19920;-74
2024/05/02 04:57:13;;;;;;;;;;;12.70;99.90;;;;;;5000209;28;19967;-74
2024/05/02 04:59:38;;;;;;;;;;;12.80;99.90;;;;;;5016963;28;19921;-74
2024/05/02 05:02:04;;;;;;;;;;;12.80;99.90;;;;;;5002657;28;19971;-74
2024/05/02 05:04:29;;;;;;;;;;;12.80;99.90;;;;;;5016571;28;20007;-74
2024/05/02 05:06:55;;;;;;;;;;;12.80;99.90;;;;;;5008265;28;19963;-74
2024/05/02 05:09:20;;;;;;;;;;;12.80;99.90;;;;;;5015591;28;20016;-74
2024/05/02 05:11:46;;;;;;;;;;;12.80;99.90;;;;;;5005537;28;19932;-74
2024/05/02 05:14:11;;;;;;;;;;;12.80;99.90;;;;;;5020214;28;19925;-74
2024/05/02 05:16:37;;;;;;;;;;;12.90;99.90;;;;;;5002680;28;20346;-74
2024/05/02 05:19:02;;;;;;;;;;;13.00;99.90;;;;;;5011167;28;20447;-74
2024/05/02 05:21:28;;;;;;;;;;;13.00;99.90;;;;;;5000249;28;19925;-74
2024/05/02 05:23:53;;;;;;;;;;;13.00;99.90;;;;;;5014414;28;19929;-74
2024/05/02 05:26:19;;;;;;;;;;;13.10;99.90;;;;;;5018763;28;19924;-73
2024/05/02 05:28:45;;;;;;;;;;;13.10;99.90;;;;;;5001642;28;20004;-73
2024/05/02 05:31:10;;;;;;;;;;;13.10;99.90;;;;;;5012926;28;20424;-74
2024/05/02 05:33:36;;;;;;;;;;;13.20;99.90;;;;;;5011311;28;20008;-74
2024/05/02 05:36:01;;;;;;;;;;;13.20;99.90;;;;;;5019078;28;19979;-75
2024/05/02 05:38:27;;;;;;;;;;;13.20;99.90;;;;;;5007235;28;21013;-75
2024/05/02 05:40:52;;;;;;;;;;;13.30;99.90;;;;;;5022557;28;19925;-74
2024/05/02 05:43:18;;;;;;;;;;;13.30;99.90;;;;;;5005281;28;19917;-74
2024/05/02 05:45:43;;;;;;;;;;;13.30;99.90;;;;;;5026271;28;19927;-74
2024/05/02 05:48:09;;;;;;;;;;;13.40;99.90;;;;;;5010191;28;19921;-73
2024/05/02 05:50:34;;;;;;;;;;;13.30;99.90;;;;;;5018243;28;19944;-73
2024/05/02 05:53:00;;;;;;;;;;;13.30;99.90;;;;;;5010937;28;20380;-74
2024/05/02 05:55:27;;;;;;;;;;;13.50;99.90;;;;;;5025097;28;19924;-75
2024/05/02 05:57:52;;;;;;;;;;;13.50;99.90;;;;;;5006034;28;19921;-74
2024/05/02 06:00:20;;;;;;;;;;;13.60;99.90;;;;;;5023116;28;19952;-74
2024/05/02 06:02:46;;;;;;;;;;;13.60;99.90;;;;;;5000753;28;19972;-74
2024/05/02 06:05:11;;;;;;;;;;;13.70;99.90;;;;;;5017932;28;20036;-74
2024/05/02 06:07:37;;;;;;;;;;;13.80;99.90;;;;;;5023345;28;20004;-74
2024/05/02 06:10:02;;;;;;;;;;;13.80;99.90;;;;;;5003796;28;19921;-74
2024/05/02 06:12:28;;;;;;;;;;;13.80;99.90;;;;;;5009655;28;19925;-74
2024/05/02 06:14:53;;;;;;;;;;;13.90;99.90;;;;;;5008643;28;19921;-74
2024/05/02 06:17:19;;;;;;;;;;;13.80;99.90;;;;;;5016229;28;19921;-74
2024/05/02 06:19:44;;;;;;;;;;;13.90;99.90;;;;;;5012392;28;21027;-74
2024/05/02 06:22:10;;;;;;;;;;;13.80;99.90;;;;;;5021729;28;19944;-73
2024/05/02 06:24:35;;;;;;;;;;;14.00;99.90;;;;;;5004780;28;19920;-75
2024/05/02 06:27:01;;;;;;;;;;;14.10;99.90;;;;;;5022657;28;19925;-73
2024/05/02 06:29:27;;;;;;;;;;;14.30;99.90;;;;;;5003528;28;19929;-74
2024/05/02 06:31:52;;;;;;;;;;;14.30;99.90;;;;;;5018529;28;19921;-74
2024/05/02 06:34:18;;;;;;;;;;;14.30;99.90;;;;;;5008985;28;19913;-73
2024/05/02 06:36:44;;;;;;;;;;;14.10;99.90;;;;;;5014256;28;20117;-73
2024/05/02 06:39:10;;;;;;;;;;;14.10;99.90;;;;;;5006362;28;19929;-74
2024/05/02 06:41:35;;;;;;;;;;;14.00;99.90;;;;;;5018104;28;20013;-74
2024/05/02 06:44:01;;;;;;;;;;;13.70;99.90;;;;;;5002599;28;19952;-73
2024/05/02 06:46:26;;;;;;;;;;;13.50;99.90;;;;;;5014534;28;20165;-73
2024/05/02 06:48:52;;;;;;;;;;;13.60;99.90;;;;;;5015189;28;19922;-73
2024/05/02 06:51:22;;;;;;;;;;;13.50;99.90;;;;;;4996260;28;20047;-75
2024/05/02 06:53:48;;;;;;;;;;;13.50;99.90;;;;;;5010780;28;20413;-75
2024/05/02 06:56:13;;;;;;;;;;;13.60;99.90;;;;;;4995481;28;19921;-75
2024/05/02 06:58:39;;;;;;;;;;;13.80;99.90;;;;;;5012704;28;20378;-75
2024/05/02 07:01:05;;;;;;;;;;;13.80;99.90;;;;;;4998351;28;19932;-74
2024/05/02 07:03:30;;;;;;;;;;;13.90;99.90;;;;;;5004654;28;19928;-74
2024/05/02 07:05:56;;;;;;;;;;;14.10;99.90;;;;;;4989833;28;20015;-74
2024/05/02 07:08:21;;;;;;;;;;;14.00;99.90;;;;;;5003225;28;19964;-74
2024/05/02 07:10:47;;;;;;;;;;;14.00;99.90;;;;;;4982741;28;20467;-75
2024/05/02 07:13:12;;;;;;;;;;;14.20;99.90;;;;;;5007506;28;20006;-74
2024/05/02 07:15:40;;;;;;;;;;;14.30;99.90;;;;;;4996356;28;19921;-75
2024/05/02 07:18:07;;;;;;;;;;;14.30;99.90;;;;;;4999688;28;19983;-74
2024/05/02 07:20:32;;;;;;;;;;;14.50;99.90;;;;;;4991983;28;20035;-73
2024/05/02 07:23:02;;;;;;;;;;;14.50;99.90;;;;;;5009126;28;19921;-73
2024/05/02 07:25:29;;;;;;;;;;;14.20;99.90;;;;;;5006491;28;20051;-73
2024/05/02 07:27:54;;;;;;;;;;;14.30;99.90;;;;;;5009044;28;20301;-72
2024/05/02 07:30:20;;;;;;;;;;;14.30;99.90;;;;;;5007934;28;19921;-71
2024/05/02 07:32:46;;;;;;;;;;;14.50;99.90;;;;;;4998850;28;20630;-72
2024/05/02 07:35:11;;;;;;;;;;;14.50;99.90;;;;;;5008742;28;20397;-72
2024/05/02 07:37:37;;;;;;;;;;;14.40;99.90;;;;;;4994588;28;20347;-73
2024/05/02 07:40:03;;;;;;;;;;;14.40;99.90;;;;;;5011362;28;20377;-74
2024/05/02 07:42:28;;;;;;;;;;;14.30;99.90;;;;;;4996735;28;19929;-75
2024/05/02 07:44:54;;;;;;;;;;;14.30;99.90;;;;;;5010842;28;19928;-77
2024/05/02 07:47:20;;;;;;;;;;;14.30;99.90;;;;;;4999935;28;19921;-73
2024/05/02 07:49:45;;;;;;;;;;;14.30;99.90;;;;;;5012538;28;20758;-74
2024/05/02 07:52:11;;;;;;;;;;;14.40;99.90;;;;;;5002908;28;19917;-75
2024/05/02 07:54:36;;;;;;;;;;;14.40;99.90;;;;;;5016387;28;19921;-73
2024/05/02 07:57:02;;;;;;;;;;;14.50;99.90;;;;;;5001231;28;20389;-72
2024/05/02 07:59:27;;;;;;;;;;;14.60;99.90;;;;;;5013192;28;20038;-75
2024/05/02 08:01:53;;;;;;;;;;;14.50;99.90;;;;;;5000320;28;19971;-74
2024/05/02 08:04:19;;;;;;;;;;;14.20;99.90;;;;;;5010593;28;21519;-76
2024/05/02 08:06:44;;;;;;;;;;;14.10;99.90;;;;;;5000450;28;19921;-75
2024/05/02 08:09:12;;;;;;;;;;;14.30;99.90;;;;;;5005850;28;19975;-75
2024/05/02 08:11:38;;;;;;;;;;;14.40;99.90;;;;;;5003988;28;19924;-76
2024/05/02 08:14:03;;;;;;;;;;;14.50;99.90;;;;;;4994746;28;19922;-76
2024/05/02 08:16:29;;;;;;;;;;;14.50;99.90;;;;;;5002065;28;20912;-75
2024/05/02 08:18:54;;;;;;;;;;;14.30;99.90;;;;;;4992234;28;20391;-76
2024/05/02 08:21:20;;;;;;;;;;;14.30;99.90;;;;;;5008224;28;19936;-75
2024/05/02 08:23:46;;;;;;;;;;;14.40;99.90;;;;;;4993916;28;20328;-75
2024/05/02 08:26:11;;;;;;;;;;;14.40;99.90;;;;;;5015329;28;19921;-76
2024/05/02 08:28:37;;;;;;;;;;;14.40;99.90;;;;;;5000682;28;20344;-77
2024/05/02 08:31:02;;;;;;;;;;;14.60;99.90;;;;;;5005701;28;19921;-74
2024/05/02 08:33:28;;;;;;;;;;;14.10;99.90;;;;;;4999556;28;19921;-74
2024/05/02 08:35:53;;;;;;;;;;;14.00;99.90;;;;;;5010185;28;19921;-74
2024/05/02 08:38:20;;;;;;;;;;;14.00;99.90;;;;;;4993859;28;19984;-74
2024/05/02 08:40:46;;;;;;;;;;;14.10;99.90;;;;;;5014684;28;19924;-75
2024/05/02 08:43:12;;;;;;;;;;;14.00;99.90;;;;;;4999598;28;21405;-74
2024/05/02 08:45:38;;;;;;;;;;;13.90;99.90;;;;;;5016414;28;19964;-74
2024/05/02 08:48:11;;;;;;;;;;;13.90;99.90;;;;;;5014415;28;19917;-76
2024/05/02 08:50:39;;;;;;;;;;;13.70;99.90;;;;;;5007371;28;19971;-75
2024/05/02 08:53:04;;;;;;;;;;;13.70;99.90;;;;;;5013945;28;19928;-75
2024/05/02 08:55:30;;;;;;;;;;;13.70;99.90;;;;;;5004801;28;19917;-76
2024/05/02 08:57:56;;;;;;;;;;;13.80;99.90;;;;;;5013255;28;19971;-74
2024/05/02 09:00:22;;;;;;;;;;;13.80;99.90;;;;;;5006323;28;19917;-74
2024/05/02 09:02:50;;;;;;;;;;;13.90;99.90;;;;;;5012186;28;19931;-75
2024/05/02 09:05:15;;;;;;;;;;;14.20;99.90;;;;;;5001951;28;19917;-74
2024/05/02 09:07:41;;;;;;;;;;;14.40;99.90;;;;;;5016334;28;20384;-74
2024/05/02 09:10:06;;;;;;;;;;;14.50;99.90;;;;;;4999731;28;19994;-73
2024/05/02 09:12:34;;;;;;;;;;;14.80;99.90;;;;;;5011728;28;22004;-73
2024/05/02 09:15:00;;;;;;;;;;;15.10;99.90;;;;;;5001651;28;19920;-75
2024/05/02 09:17:25;;;;;;;;;;;15.10;99.90;;;;;;5011089;28;19933;-74
2024/05/02 09:19:51;;;;;;;;;;;15.30;99.90;;;;;;5002937;28;20537;-74
2024/05/02 09:22:18;;;;;;;;;;;14.90;99.90;;;;;;5012127;28;19925;-73
2024/05/02 09:24:44;;;;;;;;;;;15.30;99.90;;;;;;4997394;28;20597;-74
2024/05/02 09:27:09;;;;;;;;;;;15.40;99.90;;;;;;5012000;28;19917;-74
2024/05/02 09:29:39;;;;;;;;;;;15.30;99.90;;;;;;5003492;28;19921;-75
2024/05/02 09:32:05;;;;;;;;;;;15.10;99.90;;;;;;5010445;28;19928;-74
2024/05/02 09:34:31;;;;;;;;;;;15.10;99.90;;;;;;5014302;28;19922;-74
2024/05/02 09:37:00;;;;;;;;;;;15.00;99.90;;;;;;4993715;28;19966;-75
2024/05/02 09:39:26;;;;;;;;;;;15.10;99.90;;;;;;5010267;28;19921;-74
2024/05/02 09:42:01;;;;;;;;;;;15.30;99.90;;;;;;5001119;28;19933;-74
2024/05/02 09:44:27;;;;;;;;;;;15.30;99.90;;;;;;5004327;28;19921;-78
2024/05/02 09:47:01;;;;;;;;;;;15.00;99.90;;;;;;4998684;28;20014;-74
2024/05/02 09:49:27;;;;;;;;;;;15.10;99.90;;;;;;5008457;28;19921;-75
2024/05/02 09:51:58;;;;;;;;;;;15.40;99.90;;;;;;4999757;28;20366;-74
2024/05/02 09:54:24;;;;;;;;;;;15.30;99.90;;;;;;5009330;28;19921;-73
2024/05/02 09:56:51;;;;;;;;;;;15.00;99.90;;;;;;4988484;28;19921;-72
2024/05/02 09:59:19;;;;;;;;;;;14.90;99.90;;;;;;5005769;28;19921;-73
2024/05/02 10:01:45;;;;;;;;;;;15.30;99.90;;;;;;4994670;28;19925;-75
2024/05/02 10:04:12;;;;;;;;;;;15.70;99.90;;;;;;4999058;28;19922;-74
2024/05/02 10:06:37;;;;;;;;;;;15.90;99.90;;;;;;4996751;28;19928;-72
2024/05/02 10:09:04;;;;;;;;;;;16.50;99.90;;;;;;5006935;28;20302;-73
2024/05/02 10:11:32;;;;;;;;;;;16.80;99.90;;;;;;4991064;28;20861;-72
2024/05/02 10:13:57;;;;;;;;;;;16.80;99.90;;;;;;5007813;28;20304;-72
2024/05/02 10:16:24;;;;;;;;;;;16.50;99.90;;;;;;4996851;28;19921;-73
2024/05/02 10:18:51;;;;;;;;;;;16.20;99.90;;;;;;5006441;28;19960;-73
2024/05/02 10:21:24;;;;;;;;;;;16.40;99.90;;;;;;4999594;28;19925;-73
2024/05/02 10:23:49;;;;;;;;;;;16.40;99.90;;;;;;5007050;28;19956;-74
2024/05/02 10:26:15;;;;;;;;;;;16.50;99.90;;;;;;5016818;28;20039;-73
2024/05/02 10:28:41;;;;;;;;;;;16.60;99.90;;;;;;5004860;28;20798;-73
2024/05/02 10:31:08;;;;;;;;;;;16.90;99.90;;;;;;5010025;28;20428;-73
2024/05/02 10:33:35;;;;;;;;;;;17.30;99.90;;;;;;5001288;28;19931;-73
2024/05/02 10:36:01;;;;;;;;;;;17.90;99.90;;;;;;5003499;28;19921;-74
2024/05/02 10:38:31;;;;;;;;;;;18.30;99.90;;;;;;4998778;28;19928;-74
2024/05/02 10:40:57;;;;;;;;;;;18.40;99.90;;;;;;5011295;28;20618;-73
2024/05/02 10:43:24;;;;;;;;;;;18.50;99.90;;;;;;4992599;28;19928;-73
2024/05/02 10:45:49;;;;;;;;;;;17.90;99.90;;;;;;5008642;28;19928;-74
2024/05/02 10:48:15;;;;;;;;;;;17.60;99.90;;;;;;5000570;28;19921;-73
2024/05/02 10:50:41;;;;;;;;;;;18.00;99.90;;;;;;5010544;28;19917;-74
2024/05/02 10:53:06;;;;;;;;;;;18.50;99.90;;;;;;4998901;28;19932;-76
2024/05/02 10:55:32;;;;;;;;;;;18.60;99.90;;;;;;5009159;28;20277;-73
2024/05/02 10:57:58;;;;;;;;;;;18.50;99.90;;;;;;4995189;28;20362;-74
2024/05/02 11:00:24;;;;;;;;;;;18.90;99.90;;;;;;5015124;28;20397;-72
2024/05/02 11:02:51;;;;;;;;;;;19.20;99.90;;;;;;4999651;28;19925;-71
2024/05/02 11:05:17;;;;;;;;;;;18.90;99.90;;;;;;5011777;28;20513;-74
2024/05/02 11:07:42;;;;;;;;;;;18.60;99.90;;;;;;5015229;28;19917;-73
2024/05/02 11:10:15;;;;;;;;;;;18.50;99.90;;;;;;5008196;28;19933;-73
2024/05/02 11:12:41;;;;;;;;;;;18.40;99.90;;;;;;5017617;28;19925;-72
2024/05/02 11:15:08;;;;;;;;;;;18.30;99.90;;;;;;5003813;28;19985;-72
2024/05/02 11:17:34;;;;;;;;;;;18.30;99.90;;;;;;5011292;28;20016;-75
2024/05/02 11:20:00;;;;;;;;;;;18.10;99.90;;;;;;5000189;28;21186;-72
2024/05/02 11:22:26;;;;;;;;;;;18.00;99.90;;;;;;5010810;28;20901;-74
2024/05/02 11:24:53;;;;;;;;;;;17.60;99.90;;;;;;4999868;28;19921;-74
2024/05/02 11:27:19;;;;;;;;;;;17.20;99.90;;;;;;5017297;28;19938;-74
2024/05/02 11:29:45;;;;;;;;;;;16.80;99.90;;;;;;5001609;28;19921;-73
2024/05/02 11:32:10;;;;;;;;;;;16.80;99.90;;;;;;5013453;28;20424;-75
2024/05/02 11:34:36;;;;;;;;;;;17.00;99.90;;;;;;5005692;28;20369;-75
2024/05/02 11:37:02;;;;;;;;;;;17.00;99.90;;;;;;5013945;28;19917;-74
2024/05/02 11:39:30;;;;;;;;;;;16.60;99.90;;;;;;5005614;28;19917;-71
2024/05/02 11:41:56;;;;;;;;;;;16.60;99.90;;;;;;5015995;28;19944;-73
2024/05/02 11:44:22;;;;;;;;;;;16.50;99.90;;;;;;4994118;28;20664;-73
2024/05/02 11:46:47;;;;;;;;;;;16.30;99.90;;;;;;5015149;28;19921;-73
2024/05/02 11:49:13;;;;;;;;;;;16.20;99.90;;;;;;4996614;28;20023;-74
2024/05/02 11:51:39;;;;;;;;;;;16.40;99.90;;;;;;5006742;28;20685;-73
2024/05/02 11:54:05;;;;;;;;;;;16.40;99.90;;;;;;5007548;28;20383;-73
2024/05/02 11:56:31;;;;;;;;;;;16.40;99.90;;;;;;4996972;28;20348;-74
2024/05/02 11:58:56;;;;;;;;;;;16.50;99.90;;;;;;5013423;28;20332;-73
2024/05/02 12:01:22;;;;;;;;;;;16.60;99.90;;;;;;5003454;28;19936;-74
2024/05/02 12:03:48;;;;;;;;;;;16.70;99.90;;;;;;5012933;28;20567;-75
2024/05/02 12:06:13;;;;;;;;;;;16.90;99.90;;;;;;5001682;28;19913;-73
2024/05/02 12:08:39;;;;;;;;;;;16.80;99.90;;;;;;5017636;28;19921;-73
2024/05/02 12:11:04;;;;;;;;;;;16.80;99.90;;;;;;4999574;28;20601;-73
2024/05/02 12:13:30;;;;;;;;;;;16.80;99.90;;;;;;5010803;28;19921;-72
2024/05/02 12:15:55;;;;;;;;;;;16.70;99.90;;;;;;4999747;28;19922;-73
2024/05/02 12:18:21;;;;;;;;;;;16.60;99.90;;;;;;5013213;28;20353;-72
2024/05/02 12:20:47;;;;;;;;;;;16.60;99.90;;;;;;5002515;28;19928;-72
2024/05/02 12:23:13;;;;;;;;;;;16.50;99.90;;;;;;5005207;28;20071;-73
2024/05/02 12:25:38;;;;;;;;;;;16.30;99.90;;;;;;5004315;28;20267;-72
2024/05/02 12:28:04;;;;;;;;;;;16.30;99.90;;;;;;5019040;28;19921;-73
2024/05/02 12:30:30;;;;;;;;;;;16.20;99.90;;;;;;5003656;28;19921;-73
2024/05/02 12:32:55;;;;;;;;;;;16.10;99.90;;;;;;5016757;28;19983;-73
2024/05/02 12:35:21;;;;;;;;;;;15.80;99.90;;;;;;5014316;28;19913;-73
2024/05/02 12:37:47;;;;;;;;;;;15.80;99.90;;;;;;4996238;28;19921;-74
2024/05/02 12:40:14;;;;;;;;;;;15.80;99.90;;;;;;5015555;28;20007;-74
2024/05/02 12:42:39;;;;;;;;;;;15.90;99.90;;;;;;5003079;28;19970;-73
2024/05/02 12:45:05;;;;;;;;;;;15.90;99.90;;;;;;5012066;28;20573;-73
2024/05/02 12:47:30;;;;;;;;;;;15.90;99.90;;;;;;5002912;28;20003;-72
2024/05/02 12:49:56;;;;;;;;;;;16.30;99.90;;;;;;5010843;28;20392;-75
2024/05/02 12:52:23;;;;;;;;;;;16.40;99.90;;;;;;5000701;28;19921;-73
2024/05/02 12:54:49;;;;;;;;;;;16.80;99.90;;;;;;5006390;28;19960;-75
2024/05/02 12:57:15;;;;;;;;;;;17.00;99.90;;;;;;5002150;28;20012;-75
2024/05/02 12:59:40;;;;;;;;;;;17.00;99.90;;;;;;5009417;28;19921;-73
2024/05/02 13:02:06;;;;;;;;;;;17.00;99.90;;;;;;5001507;28;20056;-74
2024/05/02 13:04:31;;;;;;;;;;;17.10;99.90;;;;;;5005255;28;20005;-72
2024/05/02 13:06:57;;;;;;;;;;;17.00;99.90;;;;;;5002959;28;19921;-72
2024/05/02 13:09:23;;;;;;;;;;;17.00;99.90;;;;;;5010663;28;20383;-72
2024/05/02 13:11:48;;;;;;;;;;;17.20;99.90;;;;;;5002100;28;19925;-72
2024/05/02 13:14:14;;;;;;;;;;;17.00;99.90;;;;;;5011284;28;20629;-72
2024/05/02 13:16:40;;;;;;;;;;;17.00;99.90;;;;;;5007759;28;19921;-73
2024/05/02 13:19:06;;;;;;;;;;;16.70;99.90;;;;;;4997324;28;19924;-73
2024/05/02 13:21:31;;;;;;;;;;;16.40;99.90;;;;;;5016724;28;19940;-73
2024/05/02 13:23:57;;;;;;;;;;;16.50;99.90;;;;;;5000159;28;19936;-73
2024/05/02 13:26:25;;;;;;;;;;;16.00;99.90;;;;;;5017095;28;20460;-73
2024/05/02 13:28:50;;;;;;;;;;;15.60;99.90;;;;;;5004046;28;19921;-73
2024/05/02 13:31:16;;;;;;;;;;;15.50;99.90;;;;;;5009502;28;19925;-73
2024/05/02 13:33:41;;;;;;;;;;;15.50;99.90;;;;;;5002159;28;19984;-73
2024/05/02 13:36:07;;;;;;;;;;;15.60;99.90;;;;;;5011201;28;19921;-70
2024/05/02 13:38:32;;;;;;;;;;;15.40;99.90;;;;;;5002172;28;20105;-72
2024/05/02 13:40:58;;;;;;;;;;;15.50;99.90;;;;;;5016334;28;19967;-72
2024/05/02 13:43:24;;;;;;;;;;;15.70;99.90;;;;;;4994604;28;19929;-72
2024/05/02 13:45:50;;;;;;;;;;;15.50;99.90;;;;;;5017191;28;19921;-75
2024/05/02 13:48:15;;;;;;;;;;;15.70;99.90;;;;;;4998662;28;19921;-76
2024/05/02 13:50:41;;;;;;;;;;;15.80;99.90;;;;;;5013768;28;20411;-76
2024/05/02 13:53:07;;;;;;;;;;;15.80;99.90;;;;;;5017077;28;20446;-75
2024/05/02 13:55:32;;;;;;;;;;;15.70;99.90;;;;;;5009544;28;19975;-75
2024/05/02 13:57:58;;;;;;;;;;;15.90;99.90;;;;;;5015315;28;20280;-74
2024/05/02 14:00:23;;;;;;;;;;;15.70;99.90;;;;;;5008384;28;19921;-73
2024/05/02 14:02:49;;;;;;;;;;;15.60;99.90;;;;;;5014445;28;19925;-73
2024/05/02 14:05:14;;;;;;;;;;;15.30;99.90;;;;;;4996799;28;19917;-73
2024/05/02 14:07:40;;;;;;;;;;;15.10;99.90;;;;;;5010770;28;19952;-75